In Rescue
 
Open Full Screen Window  High Contrast Mode
Wind Gusting 00 knots
07
March 04, 2021 3:24 AM CST
Weather Information
Wind Direction
  150 °
Wind Speed
  07 kt (8 mph)
Wind Gust
  00 kt (0 mph)
Altimeter
30.16 in
Visibility
10 SM
Temperature
01° C
34° F
Dewpoint
-03° C
27° F
Humidity
75%
1hr Rain Fall
00.00 in.
24hr Rain Fall
00.00 in.
Sky Condition
Clear
VFR

METAR KMVE 040924Z AUTO 15007KT 10SM CLR 01/M03 A3016 RMK AO2

FAA Disclaimer: The data displayed is for advisory purposes only and is not to be used for flight planning or operations.